sensor_id;sensor_type;location;lat;lon;timestamp;pressure;altitude;pressure_sealevel;temperature;humidity
4415;BME280;2220;42.670;23.398;2023-05-01T00:00:48;68676.91;;;-142.77;100.00
4415;BME280;2220;42.670;23.398;2023-05-01T00:03:14;68676.91;;;-142.77;100.00
4415;BME280;2220;42.670;23.398;2023-05-01T00:05:39;68676.91;;;-142.77;100.00
4415;BME280;2220;42.670;23.398;2023-05-01T00:08:05;68676.91;;;-142.77;100.00
4415;BME280;2220;42.670;23.398;2023-05-01T00:10:30;68676.91;;;-142.77;100.00
4415;BME280;2220;42.670;23.398;2023-05-01T00:12:55;68676.91;;;-142.77;100.00
4415;BME280;2220;42.670;23.398;2023-05-01T00:15:21;68676.91;;;-142.77;100.00
4415;BME280;2220;42.670;23.398;2023-05-01T00:17:47;68676.91;;;-142.77;100.00
4415;BME280;2220;42.670;23.398;2023-05-01T00:20:13;68676.91;;;-142.77;100.00
4415;BME280;2220;42.670;23.398;2023-05-01T00:22:38;68676.91;;;-142.77;100.00
4415;BME280;2220;42.670;23.398;2023-05-01T00:25:04;68676.91;;;-142.77;100.00
4415;BME280;2220;42.670;23.398;2023-05-01T00:27:30;68676.91;;;-142.77;100.00
4415;BME280;2220;42.670;23.398;2023-05-01T00:29:56;68676.91;;;-142.77;100.00
4415;BME280;2220;42.670;23.398;2023-05-01T00:32:21;68676.91;;;-142.77;100.00
4415;BME280;2220;42.670;23.398;2023-05-01T00:34:47;68676.91;;;-142.77;100.00
4415;BME280;2220;42.670;23.398;2023-05-01T00:37:13;68676.91;;;-142.77;100.00
4415;BME280;2220;42.670;23.398;2023-05-01T00:39:39;68676.91;;;-142.77;100.00
4415;BME280;2220;42.670;23.398;2023-05-01T00:42:04;68676.91;;;-142.77;100.00
4415;BME280;2220;42.670;23.398;2023-05-01T00:44:30;68676.91;;;-142.77;100.00
4415;BME280;2220;42.670;23.398;2023-05-01T00:46:56;68676.91;;;-142.77;100.00
4415;BME280;2220;42.670;23.398;2023-05-01T00:49:25;68676.91;;;-142.77;100.00
4415;BME280;2220;42.670;23.398;2023-05-01T00:51:51;68676.91;;;-142.77;100.00
4415;BME280;2220;42.670;23.398;2023-05-01T00:54:20;68676.91;;;-142.77;100.00
4415;BME280;2220;42.670;23.398;2023-05-01T00:56:47;68676.91;;;-142.77;100.00
4415;BME280;2220;42.670;23.398;2023-05-01T00:59:13;68676.91;;;-142.77;100.00
4415;BME280;2220;42.670;23.398;2023-05-01T01:01:40;68676.91;;;-142.77;100.00
4415;BME280;2220;42.670;23.398;2023-05-01T01:04:06;68676.91;;;-142.77;100.00
4415;BME280;2220;42.670;23.398;2023-05-01T01:12:15;68676.91;;;-142.77;100.00
4415;BME280;2220;42.670;23.398;2023-05-01T01:15:01;68676.91;;;-142.77;100.00
4415;BME280;2220;42.670;23.398;2023-05-01T01:20:39;68676.91;;;-142.77;100.00
4415;BME280;2220;42.670;23.398;2023-05-01T01:31:48;68676.91;;;-142.77;100.00
4415;BME280;2220;42.670;23.398;2023-05-01T01:34:25;68676.91;;;-142.77;100.00
4415;BME280;2220;42.670;23.398;2023-05-01T01:37:02;68676.91;;;-142.77;100.00
4415;BME280;2220;42.670;23.398;2023-05-01T01:39:45;68676.91;;;-142.77;100.00
4415;BME280;2220;42.670;23.398;2023-05-01T01:42:17;68676.91;;;-142.77;100.00
4415;BME280;2220;42.670;23.398;2023-05-01T01:44:59;68676.91;;;-142.77;100.00
4415;BME280;2220;42.670;23.398;2023-05-01T01:47:29;68676.91;;;-142.77;100.00
4415;BME280;2220;42.670;23.398;2023-05-01T01:49:57;68676.91;;;-142.77;100.00
4415;BME280;2220;42.670;23.398;2023-05-01T01:52:25;68676.91;;;-142.77;100.00
4415;BME280;2220;42.670;23.398;2023-05-01T01:55:11;68676.91;;;-142.77;100.00
4415;BME280;2220;42.670;23.398;2023-05-01T01:57:39;68676.91;;;-142.77;100.00
4415;BME280;2220;42.670;23.398;2023-05-01T02:00:06;68676.91;;;-142.77;100.00
4415;BME280;2220;42.670;23.398;2023-05-01T02:02:36;68676.91;;;-142.77;100.00
4415;BME280;2220;42.670;23.398;2023-05-01T02:05:06;68676.91;;;-142.77;100.00
4415;BME280;2220;42.670;23.398;2023-05-01T02:07:34;68676.91;;;-142.77;100.00
4415;BME280;2220;42.670;23.398;2023-05-01T02:10:00;68676.91;;;-142.77;100.00
4415;BME280;2220;42.670;23.398;2023-05-01T02:12:29;68676.91;;;-142.77;100.00
4415;BME280;2220;42.670;23.398;2023-05-01T02:14:56;68676.91;;;-142.77;100.00
4415;BME280;2220;42.670;23.398;2023-05-01T02:17:22;68676.91;;;-142.77;100.00
4415;BME280;2220;42.670;23.398;2023-05-01T02:19:50;68676.91;;;-142.77;100.00
4415;BME280;2220;42.670;23.398;2023-05-01T02:22:17;68676.91;;;-142.77;100.00
4415;BME280;2220;42.670;23.398;2023-05-01T02:24:44;68676.91;;;-142.77;100.00
4415;BME280;2220;42.670;23.398;2023-05-01T02:27:22;68676.91;;;-142.77;100.00
4415;BME280;2220;42.670;23.398;2023-05-01T02:29:50;68676.91;;;-142.77;100.00
4415;BME280;2220;42.670;23.398;2023-05-01T02:32:16;68676.91;;;-142.77;100.00
4415;BME280;2220;42.670;23.398;2023-05-01T02:34:42;68676.91;;;-142.77;100.00
4415;BME280;2220;42.670;23.398;2023-05-01T02:37:09;68676.91;;;-142.77;100.00
4415;BME280;2220;42.670;23.398;2023-05-01T02:39:36;68676.91;;;-142.77;100.00
4415;BME280;2220;42.670;23.398;2023-05-01T02:42:02;68676.91;;;-142.77;100.00
4415;BME280;2220;42.670;23.398;2023-05-01T02:44:38;68676.91;;;-142.77;100.00
4415;BME280;2220;42.670;23.398;2023-05-01T02:47:06;68676.91;;;-142.77;100.00
4415;BME280;2220;42.670;23.398;2023-05-01T02:49:33;68676.91;;;-142.77;100.00
4415;BME280;2220;42.670;23.398;2023-05-01T02:51:59;68676.91;;;-142.77;100.00
4415;BME280;2220;42.670;23.398;2023-05-01T02:54:26;68676.91;;;-142.77;100.00
4415;BME280;2220;42.670;23.398;2023-05-01T02:56:51;68676.91;;;-142.77;100.00
4415;BME280;2220;42.670;23.398;2023-05-01T02:59:18;68676.91;;;-142.77;100.00
4415;BME280;2220;42.670;23.398;2023-05-01T03:01:43;68676.91;;;-142.77;100.00
4415;BME280;2220;42.670;23.398;2023-05-01T03:04:08;68676.91;;;-142.77;100.00
4415;BME280;2220;42.670;23.398;2023-05-01T03:06:34;68676.91;;;-142.77;100.00
4415;BME280;2220;42.670;23.398;2023-05-01T03:08:59;68676.91;;;-142.77;100.00
4415;BME280;2220;42.670;23.398;2023-05-01T03:11:25;68676.91;;;-142.77;100.00
4415;BME280;2220;42.670;23.398;2023-05-01T03:13:51;68676.91;;;-142.77;100.00
4415;BME280;2220;42.670;23.398;2023-05-01T03:16:16;68676.91;;;-142.77;100.00
4415;BME280;2220;42.670;23.398;2023-05-01T03:18:41;68676.91;;;-142.77;100.00
4415;BME280;2220;42.670;23.398;2023-05-01T03:21:07;68676.91;;;-142.77;100.00
4415;BME280;2220;42.670;23.398;2023-05-01T03:23:33;68676.91;;;-142.77;100.00
4415;BME280;2220;42.670;23.398;2023-05-01T03:25:58;68676.91;;;-142.77;100.00
4415;BME280;2220;42.670;23.398;2023-05-01T03:28:24;68676.91;;;-142.77;100.00
4415;BME280;2220;42.670;23.398;2023-05-01T03:30:50;68676.91;;;-142.77;100.00
4415;BME280;2220;42.670;23.398;2023-05-01T03:33:16;68676.91;;;-142.77;100.00
4415;BME280;2220;42.670;23.398;2023-05-01T03:35:41;68676.91;;;-142.77;100.00
4415;BME280;2220;42.670;23.398;2023-05-01T03:38:07;68676.91;;;-142.77;100.00
4415;BME280;2220;42.670;23.398;2023-05-01T03:40:33;68676.91;;;-142.77;100.00
4415;BME280;2220;42.670;23.398;2023-05-01T03:42:58;68676.91;;;-142.77;100.00
4415;BME280;2220;42.670;23.398;2023-05-01T03:45:23;68676.91;;;-142.77;100.00
4415;BME280;2220;42.670;23.398;2023-05-01T03:47:49;68676.91;;;-142.77;100.00
4415;BME280;2220;42.670;23.398;2023-05-01T03:50:14;68676.91;;;-142.77;100.00
4415;BME280;2220;42.670;23.398;2023-05-01T03:52:40;68676.91;;;-142.77;100.00
4415;BME280;2220;42.670;23.398;2023-05-01T03:55:06;68676.91;;;-142.77;100.00
4415;BME280;2220;42.670;23.398;2023-05-01T03:57:32;68676.91;;;-142.77;100.00
4415;BME280;2220;42.670;23.398;2023-05-01T03:59:58;68676.91;;;-142.77;100.00
4415;BME280;2220;42.670;23.398;2023-05-01T04:02:23;68676.91;;;-142.77;100.00
4415;BME280;2220;42.670;23.398;2023-05-01T04:05:47;68676.91;;;-142.77;100.00
4415;BME280;2220;42.670;23.398;2023-05-01T04:09:11;68676.91;;;-142.77;100.00
4415;BME280;2220;42.670;23.398;2023-05-01T04:12:35;68676.91;;;-142.77;100.00
4415;BME280;2220;42.670;23.398;2023-05-01T04:15:59;68676.91;;;-142.77;100.00
4415;BME280;2220;42.670;23.398;2023-05-01T04:19:23;68676.91;;;-142.77;100.00
4415;BME280;2220;42.670;23.398;2023-05-01T04:22:47;68676.91;;;-142.77;100.00
4415;BME280;2220;42.670;23.398;2023-05-01T04:26:11;68676.91;;;-142.77;100.00
4415;BME280;2220;42.670;23.398;2023-05-01T04:29:35;68676.91;;;-142.77;100.00
4415;BME280;2220;42.670;23.398;2023-05-01T04:32:59;68676.91;;;-142.77;100.00
4415;BME280;2220;42.670;23.398;2023-05-01T04:36:20;68676.91;;;-142.77;100.00
4415;BME280;2220;42.670;23.398;2023-05-01T04:39:24;68676.91;;;-142.77;100.00
4415;BME280;2220;42.670;23.398;2023-05-01T04:41:56;68676.91;;;-142.77;100.00
4415;BME280;2220;42.670;23.398;2023-05-01T04:44:22;68676.91;;;-142.77;100.00
4415;BME280;2220;42.670;23.398;2023-05-01T04:46:47;68676.91;;;-142.77;100.00
4415;BME280;2220;42.670;23.398;2023-05-01T04:49:13;68676.91;;;-142.77;100.00
4415;BME280;2220;42.670;23.398;2023-05-01T04:51:39;68676.91;;;-142.77;100.00
4415;BME280;2220;42.670;23.398;2023-05-01T04:54:04;68676.91;;;-142.77;100.00
4415;BME280;2220;42.670;23.398;2023-05-01T04:56:30;68676.91;;;-142.77;100.00
4415;BME280;2220;42.670;23.398;2023-05-01T04:58:56;68676.91;;;-142.77;100.00
4415;BME280;2220;42.670;23.398;2023-05-01T05:01:21;68676.91;;;-142.77;100.00
4415;BME280;2220;42.670;23.398;2023-05-01T05:03:47;68676.91;;;-142.77;100.00
4415;BME280;2220;42.670;23.398;2023-05-01T05:06:12;68676.91;;;-142.77;100.00
4415;BME280;2220;42.670;23.398;2023-05-01T05:08:38;68676.91;;;-142.77;100.00
4415;BME280;2220;42.670;23.398;2023-05-01T05:11:03;68676.91;;;-142.77;100.00
4415;BME280;2220;42.670;23.398;2023-05-01T05:13:29;68676.91;;;-142.77;100.00
4415;BME280;2220;42.670;23.398;2023-05-01T05:15:54;68676.91;;;-142.77;100.00
4415;BME280;2220;42.670;23.398;2023-05-01T05:18:20;68676.91;;;-142.77;100.00
4415;BME280;2220;42.670;23.398;2023-05-01T05:20:45;68676.91;;;-142.77;100.00
4415;BME280;2220;42.670;23.398;2023-05-01T05:23:11;68676.91;;;-142.77;100.00
4415;BME280;2220;42.670;23.398;2023-05-01T05:25:36;68676.91;;;-142.77;100.00
4415;BME280;2220;42.670;23.398;2023-05-01T05:28:02;68676.91;;;-142.77;100.00
4415;BME280;2220;42.670;23.398;2023-05-01T05:30:28;68676.91;;;-142.77;100.00
4415;BME280;2220;42.670;23.398;2023-05-01T05:32:53;68676.91;;;-142.77;100.00
4415;BME280;2220;42.670;23.398;2023-05-01T05:35:19;68676.91;;;-142.77;100.00
4415;BME280;2220;42.670;23.398;2023-05-01T05:37:44;68676.91;;;-142.77;100.00
4415;BME280;2220;42.670;23.398;2023-05-01T05:40:11;68676.91;;;-142.77;100.00
4415;BME280;2220;42.670;23.398;2023-05-01T05:42:36;68676.91;;;-142.77;100.00
4415;BME280;2220;42.670;23.398;2023-05-01T05:45:02;68676.91;;;-142.77;100.00
4415;BME280;2220;42.670;23.398;2023-05-01T05:47:27;68676.91;;;-142.77;100.00
4415;BME280;2220;42.670;23.398;2023-05-01T05:49:53;68676.91;;;-142.77;100.00
4415;BME280;2220;42.670;23.398;2023-05-01T05:52:20;68676.91;;;-142.77;100.00
4415;BME280;2220;42.670;23.398;2023-05-01T05:54:45;68676.91;;;-142.77;100.00
4415;BME280;2220;42.670;23.398;2023-05-01T05:57:11;68676.91;;;-142.77;100.00
4415;BME280;2220;42.670;23.398;2023-05-01T05:59:37;68676.91;;;-142.77;100.00
4415;BME280;2220;42.670;23.398;2023-05-01T06:02:03;68676.91;;;-142.77;100.00
4415;BME280;2220;42.670;23.398;2023-05-01T06:04:28;68676.91;;;-142.77;100.00
4415;BME280;2220;42.670;23.398;2023-05-01T06:06:54;68676.91;;;-142.77;100.00
4415;BME280;2220;42.670;23.398;2023-05-01T06:09:20;68676.91;;;-142.77;100.00
4415;BME280;2220;42.670;23.398;2023-05-01T06:11:46;68676.91;;;-142.77;100.00
4415;BME280;2220;42.670;23.398;2023-05-01T06:14:11;68676.91;;;-142.77;100.00
4415;BME280;2220;42.670;23.398;2023-05-01T06:16:37;68676.91;;;-142.77;100.00
4415;BME280;2220;42.670;23.398;2023-05-01T06:19:03;68676.91;;;-142.77;100.00
4415;BME280;2220;42.670;23.398;2023-05-01T06:21:28;68676.91;;;-142.77;100.00
4415;BME280;2220;42.670;23.398;2023-05-01T06:23:56;68676.91;;;-142.77;100.00
4415;BME280;2220;42.670;23.398;2023-05-01T06:26:21;68676.91;;;-142.77;100.00
4415;BME280;2220;42.670;23.398;2023-05-01T06:28:47;68676.91;;;-142.77;100.00
4415;BME280;2220;42.670;23.398;2023-05-01T06:31:12;94035.03;;;13.64;100.00
4415;BME280;2220;42.670;23.398;2023-05-01T06:33:38;94055.19;;;13.78;100.00
4415;BME280;2220;42.670;23.398;2023-05-01T06:36:03;94064.41;;;13.89;100.00
4415;BME280;2220;42.670;23.398;2023-05-01T06:38:29;94087.06;;;14.07;100.00
4415;BME280;2220;42.670;23.398;2023-05-01T06:40:57;94127.91;;;14.08;100.00
4415;BME280;2220;42.670;23.398;2023-05-01T06:43:22;94156.22;;;14.20;100.00
4415;BME280;2220;42.670;23.398;2023-05-01T06:45:52;94176.88;;;14.21;100.00
4415;BME280;2220;42.670;23.398;2023-05-01T06:48:17;94188.78;;;14.27;100.00
4415;BME280;2220;42.670;23.398;2023-05-01T06:50:43;94197.53;;;14.37;100.00
4415;BME280;2220;42.670;23.398;2023-05-01T06:53:08;94208.41;;;14.44;100.00
4415;BME280;2220;42.670;23.398;2023-05-01T06:55:33;94235.66;;;14.43;100.00
4415;BME280;2220;42.670;23.398;2023-05-01T06:57:59;94231.72;;;14.45;100.00
4415;BME280;2220;42.670;23.398;2023-05-01T07:00:24;94189.19;;;14.35;100.00
4415;BME280;2220;42.670;23.398;2023-05-01T07:02:50;94199.97;;;14.33;100.00
4415;BME280;2220;42.670;23.398;2023-05-01T07:05:15;94213.56;;;14.63;100.00
4415;BME280;2220;42.670;23.398;2023-05-01T07:07:41;94238.69;;;14.50;100.00
4415;BME280;2220;42.670;23.398;2023-05-01T07:10:07;94253.72;;;14.44;100.00
4415;BME280;2220;42.670;23.398;2023-05-01T07:12:32;94264.13;;;14.63;100.00
4415;BME280;2220;42.670;23.398;2023-05-01T07:14:58;94279.88;;;14.63;100.00
4415;BME280;2220;42.670;23.398;2023-05-01T07:17:24;94287.63;;;14.68;100.00
4415;BME280;2220;42.670;23.398;2023-05-01T07:19:49;94293.53;;;14.74;100.00
4415;BME280;2220;42.670;23.398;2023-05-01T07:22:15;94282.38;;;14.54;100.00
4415;BME280;2220;42.670;23.398;2023-05-01T07:24:40;94267.72;;;14.67;100.00
4415;BME280;2220;42.670;23.398;2023-05-01T07:27:06;94271.97;;;14.91;100.00
4415;BME280;2220;42.670;23.398;2023-05-01T07:29:31;94301.41;;;15.01;100.00
4415;BME280;2220;42.670;23.398;2023-05-01T07:31:57;94323.50;;;15.23;100.00
4415;BME280;2220;42.670;23.398;2023-05-01T07:34:23;94346.84;;;15.24;100.00
4415;BME280;2220;42.670;23.398;2023-05-01T07:36:48;94355.88;;;15.32;100.00
4415;BME280;2220;42.670;23.398;2023-05-01T07:39:13;94381.78;;;15.47;100.00
4415;BME280;2220;42.670;23.398;2023-05-01T07:41:39;94384.22;;;15.44;100.00
4415;BME280;2220;42.670;23.398;2023-05-01T07:44:05;94389.47;;;15.44;100.00
4415;BME280;2220;42.670;23.398;2023-05-01T07:46:30;94401.31;;;15.55;100.00
4415;BME280;2220;42.670;23.398;2023-05-01T07:48:56;94411.81;;;15.69;100.00
4415;BME280;2220;42.670;23.398;2023-05-01T07:51:21;94433.63;;;16.05;100.00
4415;BME280;2220;42.670;23.398;2023-05-01T07:53:48;94475.19;;;15.89;100.00
4415;BME280;2220;42.670;23.398;2023-05-01T07:56:13;94491.50;;;16.14;100.00
4415;BME280;2220;42.670;23.398;2023-05-01T07:58:40;94502.94;;;16.18;100.00
4415;BME280;2220;42.670;23.398;2023-05-01T08:01:06;94521.47;;;16.13;100.00
4415;BME280;2220;42.670;23.398;2023-05-01T08:03:33;94541.34;;;16.41;100.00
4415;BME280;2220;42.670;23.398;2023-05-01T08:05:59;94519.56;;;16.63;100.00
4415;BME280;2220;42.670;23.398;2023-05-01T08:08:24;94569.03;;;16.61;100.00
4415;BME280;2220;42.670;23.398;2023-05-01T08:10:51;94587.00;;;16.45;100.00
4415;BME280;2220;42.670;23.398;2023-05-01T08:13:16;94619.63;;;16.44;100.00
4415;BME280;2220;42.670;23.398;2023-05-01T08:15:43;94600.22;;;16.54;100.00
4415;BME280;2220;42.670;23.398;2023-05-01T08:18:09;94592.91;;;16.51;100.00
4415;BME280;2220;42.670;23.398;2023-05-01T08:20:34;94622.59;;;16.79;100.00
4415;BME280;2220;42.670;23.398;2023-05-01T08:23:00;94690.06;;;17.20;100.00
4415;BME280;2220;42.670;23.398;2023-05-01T08:25:26;94744.88;;;17.18;100.00
4415;BME280;2220;42.670;23.398;2023-05-01T08:27:51;94758.47;;;17.56;100.00
4415;BME280;2220;42.670;23.398;2023-05-01T08:30:17;94738.69;;;17.58;100.00
4415;BME280;2220;42.670;23.398;2023-05-01T08:32:42;94734.25;;;17.68;100.00
4415;BME280;2220;42.670;23.398;2023-05-01T08:35:08;94745.41;;;17.28;100.00
4415;BME280;2220;42.670;23.398;2023-05-01T08:37:33;94756.41;;;17.67;100.00
4415;BME280;2220;42.670;23.398;2023-05-01T08:39:59;94782.84;;;17.75;100.00
4415;BME280;2220;42.670;23.398;2023-05-01T08:42:25;94820.09;;;17.69;100.00
4415;BME280;2220;42.670;23.398;2023-05-01T08:44:52;94802.16;;;17.71;100.00
4415;BME280;2220;42.670;23.398;2023-05-01T08:47:18;94809.53;;;17.46;100.00
4415;BME280;2220;42.670;23.398;2023-05-01T08:49:44;94768.69;;;17.49;100.00
4415;BME280;2220;42.670;23.398;2023-05-01T08:52:12;94792.59;;;17.75;100.00
4415;BME280;2220;42.670;23.398;2023-05-01T08:54:41;94765.19;;;17.98;100.00
4415;BME280;2220;42.670;23.398;2023-05-01T08:57:09;94793.78;;;18.13;100.00
4415;BME280;2220;42.670;23.398;2023-05-01T08:59:36;94828.28;;;18.26;100.00
4415;BME280;2220;42.670;23.398;2023-05-01T09:02:05;94822.59;;;18.10;100.00
4415;BME280;2220;42.670;23.398;2023-05-01T09:04:32;94814.03;;;18.04;100.00
4415;BME280;2220;42.670;23.398;2023-05-01T09:06:59;94793.47;;;18.37;100.00
4415;BME280;2220;42.670;23.398;2023-05-01T09:09:29;94796.41;;;18.44;100.00
4415;BME280;2220;42.670;23.398;2023-05-01T09:11:55;94830.63;;;18.58;100.00
4415;BME280;2220;42.670;23.398;2023-05-01T09:14:25;94811.34;;;18.80;100.00
4415;BME280;2220;42.670;23.398;2023-05-01T09:16:51;94816.06;;;19.00;100.00
4415;BME280;2220;42.670;23.398;2023-05-01T09:19:17;94812.88;;;19.29;100.00
4415;BME280;2220;42.670;23.398;2023-05-01T09:21:43;94815.38;;;19.35;100.00
4415;BME280;2220;42.670;23.398;2023-05-01T09:24:08;94812.59;;;19.48;100.00
4415;BME280;2220;42.670;23.398;2023-05-01T09:26:35;94811.25;;;18.94;100.00
4415;BME280;2220;42.670;23.398;2023-05-01T09:29:04;94791.78;;;18.81;100.00
4415;BME280;2220;42.670;23.398;2023-05-01T09:31:30;94828.47;;;18.91;100.00
4415;BME280;2220;42.670;23.398;2023-05-01T09:34:03;94825.78;;;18.52;100.00
4415;BME280;2220;42.670;23.398;2023-05-01T09:36:30;94845.06;;;18.30;100.00
4415;BME280;2220;42.670;23.398;2023-05-01T09:38:57;94847.50;;;18.80;100.00
4415;BME280;2220;42.670;23.398;2023-05-01T09:41:24;94842.94;;;19.03;100.00
4415;BME280;2220;42.670;23.398;2023-05-01T09:43:54;94851.06;;;19.23;100.00
4415;BME280;2220;42.670;23.398;2023-05-01T09:46:21;94862.88;;;19.17;100.00
4415;BME280;2220;42.670;23.398;2023-05-01T09:48:58;94871.56;;;19.18;100.00
4415;BME280;2220;42.670;23.398;2023-05-01T09:51:31;94858.06;;;18.80;100.00
4415;BME280;2220;42.670;23.398;2023-05-01T09:53:58;94866.94;;;18.92;100.00
4415;BME280;2220;42.670;23.398;2023-05-01T09:56:28;94865.16;;;18.70;100.00
4415;BME280;2220;42.670;23.398;2023-05-01T09:58:55;94864.59;;;18.60;100.00
4415;BME280;2220;42.670;23.398;2023-05-01T10:01:38;94876.06;;;18.78;100.00
4415;BME280;2220;42.670;23.398;2023-05-01T10:04:04;94894.03;;;19.07;100.00
4415;BME280;2220;42.670;23.398;2023-05-01T10:06:29;94906.88;;;18.99;100.00
4415;BME280;2220;42.670;23.398;2023-05-01T10:08:56;94916.63;;;19.30;100.00
4415;BME280;2220;42.670;23.398;2023-05-01T10:11:22;94937.09;;;19.16;100.00
4415;BME280;2220;42.670;23.398;2023-05-01T10:14:08;94948.38;;;19.47;99.55
4415;BME280;2220;42.670;23.398;2023-05-01T10:16:35;94955.38;;;19.43;98.58
4415;BME280;2220;42.670;23.398;2023-05-01T10:19:01;94981.34;;;19.50;90.60
4415;BME280;2220;42.670;23.398;2023-05-01T10:21:27;94982.22;;;19.68;92.69
4415;BME280;2220;42.670;23.398;2023-05-01T10:23:54;94967.03;;;19.91;93.48
4415;BME280;2220;42.670;23.398;2023-05-01T10:26:20;94970.25;;;19.70;94.17
4415;BME280;2220;42.670;23.398;2023-05-01T10:28:47;94962.72;;;19.55;93.46
4415;BME280;2220;42.670;23.398;2023-05-01T10:31:14;94973.28;;;19.55;92.48
4415;BME280;2220;42.670;23.398;2023-05-01T10:33:42;94965.97;;;20.09;93.86
4415;BME280;2220;42.670;23.398;2023-05-01T10:36:12;94957.56;;;20.33;94.54
4415;BME280;2220;42.670;23.398;2023-05-01T10:38:39;94971.28;;;20.44;92.26
4415;BME280;2220;42.670;23.398;2023-05-01T10:41:10;94972.81;;;20.36;91.11
4415;BME280;2220;42.670;23.398;2023-05-01T10:43:35;94968.16;;;20.76;91.41
4415;BME280;2220;42.670;23.398;2023-05-01T10:53:39;94934.19;;;19.26;100.00
4415;BME280;2220;42.670;23.398;2023-05-01T10:58:58;94962.19;;;19.84;96.02
4415;BME280;2220;42.670;23.398;2023-05-01T11:01:37;94967.28;;;19.72;92.20
4415;BME280;2220;42.670;23.398;2023-05-01T11:04:44;94971.53;;;19.42;92.19
4415;BME280;2220;42.670;23.398;2023-05-01T11:12:14;94978.28;;;20.31;87.96
4415;BME280;2220;42.670;23.398;2023-05-01T11:20:44;94984.75;;;19.90;85.82
4415;BME280;2220;42.670;23.398;2023-05-01T11:22:58;94985.91;;;20.41;86.35
4415;BME280;2220;42.670;23.398;2023-05-01T11:25:26;95006.94;;;20.55;79.23
4415;BME280;2220;42.670;23.398;2023-05-01T11:28:04;95006.91;;;20.89;79.64
4415;BME280;2220;42.670;23.398;2023-05-01T11:30:37;94996.75;;;21.09;81.18
4415;BME280;2220;42.670;23.398;2023-05-01T11:33:03;94994.22;;;21.30;79.55
4415;BME280;2220;42.670;23.398;2023-05-01T11:35:30;95001.34;;;21.46;78.19
4415;BME280;2220;42.670;23.398;2023-05-01T11:37:56;95002.44;;;21.45;79.17
4415;BME280;2220;42.670;23.398;2023-05-01T11:40:23;95012.53;;;21.90;76.24
4415;BME280;2220;42.670;23.398;2023-05-01T11:42:50;95008.41;;;22.73;79.51
4415;BME280;2220;42.670;23.398;2023-05-01T11:45:17;95007.41;;;22.77;75.02
4415;BME280;2220;42.670;23.398;2023-05-01T11:47:42;95009.84;;;22.49;69.95
4415;BME280;2220;42.670;23.398;2023-05-01T11:50:09;95009.06;;;22.49;70.74
4415;BME280;2220;42.670;23.398;2023-05-01T11:52:48;95011.72;;;21.98;71.90
4415;BME280;2220;42.670;23.398;2023-05-01T11:55:15;95022.25;;;22.16;69.86
4415;BME280;2220;42.670;23.398;2023-05-01T11:57:52;95024.16;;;22.06;69.84
4415;BME280;2220;42.670;23.398;2023-05-01T12:02:58;95025.03;;;21.90;65.62
4415;BME280;2220;42.670;23.398;2023-05-01T12:05:25;95025.28;;;21.67;65.00
4415;BME280;2220;42.670;23.398;2023-05-01T12:07:51;95027.50;;;21.48;66.75
4415;BME280;2220;42.670;23.398;2023-05-01T12:10:16;95025.16;;;21.55;68.20
4415;BME280;2220;42.670;23.398;2023-05-01T12:12:42;95032.88;;;21.13;69.62
4415;BME280;2220;42.670;23.398;2023-05-01T12:15:08;95036.59;;;21.21;68.17
4415;BME280;2220;42.670;23.398;2023-05-01T12:17:35;95041.13;;;21.29;67.15
4415;BME280;2220;42.670;23.398;2023-05-01T12:20:02;95046.47;;;21.03;65.51
4415;BME280;2220;42.670;23.398;2023-05-01T12:22:28;95041.94;;;21.12;67.84
4415;BME280;2220;42.670;23.398;2023-05-01T12:24:54;95034.59;;;21.18;67.44
4415;BME280;2220;42.670;23.398;2023-05-01T12:27:20;95045.84;;;20.98;68.63
4415;BME280;2220;42.670;23.398;2023-05-01T12:29:45;95036.50;;;20.83;67.12
4415;BME280;2220;42.670;23.398;2023-05-01T12:32:15;95035.72;;;20.74;70.08
4415;BME280;2220;42.670;23.398;2023-05-01T12:34:41;95022.16;;;20.32;80.45
4415;BME280;2220;42.670;23.398;2023-05-01T12:37:08;95009.38;;;20.17;85.97
4415;BME280;2220;42.670;23.398;2023-05-01T12:39:41;95003.81;;;20.44;84.48
4415;BME280;2220;42.670;23.398;2023-05-01T12:42:14;95000.81;;;20.98;84.39
4415;BME280;2220;42.670;23.398;2023-05-01T12:44:41;94998.78;;;21.12;82.66
4415;BME280;2220;42.670;23.398;2023-05-01T12:47:08;95020.84;;;21.33;82.26
4415;BME280;2220;42.670;23.398;2023-05-01T12:49:35;95015.00;;;21.66;81.01
4415;BME280;2220;42.670;23.398;2023-05-01T12:52:02;95010.41;;;22.04;77.93
4415;BME280;2220;42.670;23.398;2023-05-01T12:54:33;95006.66;;;22.14;78.36
4415;BME280;2220;42.670;23.398;2023-05-01T12:57:08;95004.81;;;21.76;82.32
4415;BME280;2220;42.670;23.398;2023-05-01T12:59:38;95010.59;;;22.08;80.43
4415;BME280;2220;42.670;23.398;2023-05-01T13:02:09;95004.06;;;22.26;79.87
4415;BME280;2220;42.670;23.398;2023-05-01T13:04:40;95007.81;;;21.66;79.93
4415;BME280;2220;42.670;23.398;2023-05-01T13:07:11;95000.56;;;21.46;79.71
4415;BME280;2220;42.670;23.398;2023-05-01T13:09:39;95015.69;;;21.84;79.29
4415;BME280;2220;42.670;23.398;2023-05-01T13:12:15;95010.38;;;21.84;77.97
4415;BME280;2220;42.670;23.398;2023-05-01T13:14:41;95018.06;;;22.06;76.85
4415;BME280;2220;42.670;23.398;2023-05-01T13:17:10;95026.13;;;22.18;75.21
4415;BME280;2220;42.670;23.398;2023-05-01T13:19:37;95028.66;;;22.15;73.24
4415;BME280;2220;42.670;23.398;2023-05-01T13:22:06;95037.19;;;22.20;70.72
4415;BME280;2220;42.670;23.398;2023-05-01T13:27:01;95040.78;;;21.39;73.80
4415;BME280;2220;42.670;23.398;2023-05-01T13:29:27;95036.53;;;21.94;72.64
4415;BME280;2220;42.670;23.398;2023-05-01T13:31:53;95042.50;;;22.20;69.97
4415;BME280;2220;42.670;23.398;2023-05-01T13:34:30;95045.78;;;22.47;70.13
4415;BME280;2220;42.670;23.398;2023-05-01T13:36:56;95054.66;;;22.72;66.46
4415;BME280;2220;42.670;23.398;2023-05-01T13:39:22;95049.53;;;22.67;66.43
4415;BME280;2220;42.670;23.398;2023-05-01T13:41:49;95058.00;;;22.60;65.49
4415;BME280;2220;42.670;23.398;2023-05-01T13:44:18;95056.25;;;22.64;65.88
4415;BME280;2220;42.670;23.398;2023-05-01T13:46:44;95050.59;;;22.45;63.51